Time;durP1;ratioP1;P1;durP2;ratioP2;P2;SDS_P1;SDS_P2;PMS_P1;PMS_P2;Temp;Humidity;BMP_temperature;BMP_pressure;BME280_temperature;BME280_humidity;BME280_pressure;Samples;Min_cycle;Max_cycle;Signal;HPM_P1;HPM_P2
2023/09/15 00:01:49;;;;;;;6.00;4.63;;;13.80;99.90;;;;;;5071556;28;20187;-71
2023/09/15 00:04:15;;;;;;;5.47;4.70;;;13.80;99.90;;;;;;5070891;28;20288;-71
2023/09/15 00:06:40;;;;;;;15.20;4.50;;;13.80;99.90;;;;;;5089179;28;20186;-71
2023/09/15 00:09:14;;;;;;;5.33;4.00;;;14.00;99.90;;;;;;5070905;28;20417;-72
2023/09/15 00:11:40;;;;;;;6.13;4.10;;;13.90;99.90;;;;;;5089117;28;20187;-71
2023/09/15 00:14:09;;;;;;;5.47;4.30;;;13.90;99.90;;;;;;5070439;28;20448;-71
2023/09/15 00:16:35;;;;;;;7.30;4.53;;;13.90;99.90;;;;;;5089013;28;20447;-71
2023/09/15 00:19:00;;;;;;;6.43;4.47;;;13.90;99.90;;;;;;5070714;28;21029;-72
2023/09/15 00:21:26;;;;;;;4.90;4.40;;;13.90;99.90;;;;;;5088832;28;20995;-72
2023/09/15 00:23:52;;;;;;;5.00;4.20;;;13.80;99.90;;;;;;5070438;28;20219;-71
2023/09/15 00:26:23;;;;;;;5.63;4.37;;;13.70;99.90;;;;;;5088860;28;20183;-72
2023/09/15 00:28:49;;;;;;;6.50;4.80;;;13.70;99.90;;;;;;5070224;28;20576;-72
2023/09/15 00:31:14;;;;;;;5.03;4.07;;;13.60;99.90;;;;;;5070355;28;20429;-72
2023/09/15 00:33:40;;;;;;;8.57;5.50;;;13.60;99.90;;;;;;5070573;28;20444;-72
2023/09/15 00:36:06;;;;;;;11.47;4.33;;;13.50;99.90;;;;;;5070371;28;20214;-71
2023/09/15 00:38:32;;;;;;;4.80;4.13;;;13.40;99.90;;;;;;5070448;28;20209;-71
2023/09/15 00:40:58;;;;;;;6.67;4.97;;;13.40;99.90;;;;;;5088351;28;20412;-71
2023/09/15 00:43:23;;;;;;;7.10;4.53;;;13.30;99.90;;;;;;5053329;28;20490;-71
2023/09/15 00:45:49;;;;;;;7.57;5.10;;;13.40;99.90;;;;;;5070359;28;20187;-72
2023/09/15 00:48:17;;;;;;;6.00;4.00;;;13.60;99.90;;;;;;5088247;28;20257;-71
2023/09/15 00:50:43;;;;;;;6.27;4.50;;;13.60;99.90;;;;;;5053597;28;20452;-72
2023/09/15 00:53:12;;;;;;;10.33;4.83;;;13.60;99.90;;;;;;5070104;28;20451;-72
2023/09/15 00:55:39;;;;;;;4.23;3.63;;;13.60;99.90;;;;;;5072489;28;20420;-71
2023/09/15 00:58:11;;;;;;;9.30;4.37;;;13.40;99.90;;;;;;5091879;28;20533;-71
2023/09/15 01:00:42;;;;;;;6.27;4.27;;;13.40;99.90;;;;;;5091909;28;20410;-72
2023/09/15 01:03:08;;;;;;;6.30;4.30;;;13.40;99.90;;;;;;5091856;28;20464;-71
2023/09/15 01:05:35;;;;;;;6.30;4.20;;;13.40;99.90;;;;;;5091996;28;20427;-71
2023/09/15 01:08:00;;;;;;;11.57;4.10;;;13.40;99.90;;;;;;5091969;28;20484;-72
2023/09/15 01:10:26;;;;;;;6.67;4.47;;;13.40;99.90;;;;;;5073455;28;20946;-72
2023/09/15 01:12:54;;;;;;;6.63;4.33;;;13.40;99.90;;;;;;5073510;28;20269;-72
2023/09/15 01:15:34;;;;;;;7.20;4.43;;;13.40;99.90;;;;;;5073449;28;20668;-72
2023/09/15 01:18:20;;;;;;;5.50;3.97;;;13.40;99.90;;;;;;5075570;28;20971;-71
2023/09/15 01:21:20;;;;;;;5.80;4.13;;;13.40;99.90;;;;;;5092325;28;20506;-72
2023/09/15 01:24:18;;;;;;;7.33;4.40;;;13.40;99.90;;;;;;5073124;28;20436;-71
2023/09/15 01:27:14;;;;;;;9.00;4.90;;;13.40;99.90;;;;;;5044341;28;20428;-71
2023/09/15 01:29:47;;;;;;;11.30;4.43;;;13.40;99.90;;;;;;5092081;28;20497;-71
2023/09/15 01:32:16;;;;;;;8.00;4.77;;;13.40;99.90;;;;;;5091779;28;20858;-71
2023/09/15 01:34:47;;;;;;;3.87;3.47;;;13.50;99.90;;;;;;5091657;28;20440;-71
2023/09/15 01:37:13;;;;;;;6.50;4.93;;;13.50;99.90;;;;;;5091783;28;20432;-72
2023/09/15 01:39:38;;;;;;;5.43;4.57;;;13.50;99.90;;;;;;5091580;28;20544;-71
2023/09/15 01:42:04;;;;;;;5.90;4.37;;;13.50;99.90;;;;;;5073147;28;20278;-71
2023/09/15 01:44:30;;;;;;;11.33;4.60;;;13.50;99.90;;;;;;5056612;28;20246;-71
2023/09/15 01:46:56;;;;;;;6.33;4.60;;;13.50;99.90;;;;;;5091717;28;20178;-71
2023/09/15 01:49:22;;;;;;;7.57;4.90;;;13.50;99.90;;;;;;5091571;28;20597;-71
2023/09/15 01:51:48;;;;;;;10.53;5.10;;;13.40;99.90;;;;;;5090859;28;20194;-71
2023/09/15 01:54:18;;;;;;;5.67;4.47;;;13.50;99.90;;;;;;5090651;28;20507;-71
2023/09/15 01:56:44;;;;;;;5.47;4.77;;;13.40;99.90;;;;;;5090980;28;20925;-71
2023/09/15 01:59:12;;;;;;;7.23;5.07;;;13.40;99.90;;;;;;5090750;28;20467;-71
2023/09/15 02:01:37;;;;;;;6.47;4.90;;;13.40;99.90;;;;;;5090676;28;20424;-71
2023/09/15 02:04:04;;;;;;;6.80;4.80;;;13.40;99.90;;;;;;5072503;28;20436;-72
2023/09/15 02:06:30;;;;;;;11.40;4.97;;;13.30;99.90;;;;;;5089768;28;20593;-71
2023/09/15 02:08:56;;;;;;;12.93;5.00;;;13.40;99.90;;;;;;5090554;28;20422;-71
2023/09/15 02:11:22;;;;;;;8.37;5.37;;;13.30;99.90;;;;;;5090484;28;20652;-71
2023/09/15 02:13:48;;;;;;;5.20;4.70;;;13.30;99.90;;;;;;5090437;28;20436;-71
2023/09/15 02:16:14;;;;;;;8.00;4.93;;;13.30;99.90;;;;;;5072093;28;20847;-71
2023/09/15 02:18:40;;;;;;;9.27;5.27;;;13.30;99.90;;;;;;5090283;28;20206;-71
2023/09/15 02:21:06;;;;;;;8.00;5.27;;;13.30;99.90;;;;;;5090763;28;20610;-71
2023/09/15 02:23:32;;;;;;;8.03;4.60;;;13.40;99.90;;;;;;5071963;28;20691;-71
2023/09/15 02:26:02;;;;;;;6.23;4.80;;;13.40;99.90;;;;;;5090163;28;20444;-71
2023/09/15 02:28:28;;;;;;;9.00;5.00;;;13.40;99.90;;;;;;5071826;28;20416;-71
2023/09/15 02:30:55;;;;;;;9.13;5.60;;;13.40;99.90;;;;;;5090075;28;21181;-71
2023/09/15 02:33:22;;;;;;;6.10;5.50;;;13.30;99.90;;;;;;5090200;28;20460;-71
2023/09/15 02:35:48;;;;;;;7.60;5.03;;;12.90;99.90;;;;;;5071567;28;20506;-71
2023/09/15 02:38:14;;;;;;;8.00;5.33;;;12.70;99.90;;;;;;5089905;28;20567;-72
2023/09/15 02:40:40;;;;;;;11.00;6.03;;;12.70;99.90;;;;;;5071764;28;20622;-72
2023/09/15 02:43:05;;;;;;;8.73;5.97;;;12.60;99.90;;;;;;5071444;28;20213;-71
2023/09/15 02:45:37;;;;;;;10.83;6.37;;;12.60;99.90;;;;;;5071709;28;20266;-71
2023/09/15 02:48:04;;;;;;;8.43;5.47;;;12.60;99.90;;;;;;5071317;28;20179;-71
2023/09/15 02:50:30;;;;;;;10.80;6.97;;;12.60;99.90;;;;;;5089833;28;20424;-71
2023/09/15 02:52:56;;;;;;;11.57;6.30;;;12.70;99.90;;;;;;5071543;28;20420;-71
2023/09/15 02:55:23;;;;;;;8.30;6.50;;;12.80;99.90;;;;;;5089506;28;20513;-71
2023/09/15 02:57:52;;;;;;;14.17;6.20;;;12.90;99.90;;;;;;5071290;28;20464;-71
2023/09/15 03:00:19;;;;;;;12.63;5.83;;;13.00;99.90;;;;;;5071321;28;20644;-71
2023/09/15 03:02:46;;;;;;;7.20;6.00;;;13.10;99.90;;;;;;5089415;28;20420;-71
2023/09/15 03:05:12;;;;;;;7.23;5.43;;;13.20;99.90;;;;;;5089641;28;20416;-71
2023/09/15 03:07:39;;;;;;;6.70;6.00;;;13.10;99.90;;;;;;5070970;28;20428;-71
2023/09/15 03:10:07;;;;;;;8.57;5.90;;;13.20;99.90;;;;;;5071420;28;20429;-71
2023/09/15 03:12:34;;;;;;;8.63;6.03;;;13.20;99.90;;;;;;5089394;28;21048;-71
2023/09/15 03:15:05;;;;;;;7.70;5.97;;;13.20;99.90;;;;;;5070754;28;20520;-72
2023/09/15 03:17:31;;;;;;;9.17;6.07;;;13.20;99.90;;;;;;5089320;28;20428;-71
2023/09/15 03:19:57;;;;;;;10.43;5.90;;;13.20;99.90;;;;;;5089480;28;20413;-70
2023/09/15 03:22:22;;;;;;;7.63;5.87;;;13.20;99.90;;;;;;5071217;28;20807;-71
2023/09/15 03:24:48;;;;;;;6.40;5.13;;;13.30;99.90;;;;;;5071081;28;20196;-71
2023/09/15 03:27:13;;;;;;;6.90;5.37;;;13.10;99.90;;;;;;5071156;28;20186;-71
2023/09/15 03:29:39;;;;;;;7.70;5.03;;;13.20;99.90;;;;;;5089469;28;20182;-71
2023/09/15 03:32:04;;;;;;;6.07;5.33;;;13.10;99.90;;;;;;5089802;28;20188;-71
2023/09/15 03:34:30;;;;;;;11.73;5.90;;;13.10;99.90;;;;;;5089726;28;20202;-71
2023/09/15 03:36:56;;;;;;;6.70;5.20;;;13.10;99.90;;;;;;5071364;28;20254;-72
2023/09/15 03:39:22;;;;;;;7.23;5.20;;;13.00;99.90;;;;;;5070715;28;20222;-72
2023/09/15 03:41:48;;;;;;;7.40;5.83;;;13.00;99.90;;;;;;5070404;28;20187;-71
2023/09/15 03:44:13;;;;;;;7.37;5.50;;;12.90;99.90;;;;;;5070657;28;20202;-71
2023/09/15 03:46:39;;;;;;;9.30;6.47;;;13.00;99.90;;;;;;5088846;28;20422;-71
2023/09/15 03:49:05;;;;;;;8.50;5.13;;;13.00;99.90;;;;;;5053980;28;20267;-72
2023/09/15 03:51:31;;;;;;;8.43;6.30;;;13.00;99.90;;;;;;5088668;28;20207;-71
2023/09/15 03:53:56;;;;;;;10.90;7.40;;;13.10;99.90;;;;;;5070286;28;20949;-72
2023/09/15 03:56:23;;;;;;;8.20;5.83;;;13.00;99.90;;;;;;5088604;28;20194;-72
2023/09/15 03:58:49;;;;;;;7.87;6.37;;;13.10;99.90;;;;;;5070214;28;20225;-71
2023/09/15 04:01:19;;;;;;;13.13;7.27;;;13.10;99.90;;;;;;5088562;28;20417;-71
2023/09/15 04:03:48;;;;;;;9.17;7.00;;;13.00;99.90;;;;;;5071115;28;20224;-71
2023/09/15 04:06:13;;;;;;;13.63;7.60;;;13.00;99.90;;;;;;5088663;28;20423;-71
2023/09/15 04:08:39;;;;;;;11.40;7.20;;;13.00;99.90;;;;;;5088594;28;20424;-71
2023/09/15 04:11:05;;;;;;;9.50;6.70;;;12.90;99.90;;;;;;5053463;28;20213;-72
2023/09/15 04:13:31;;;;;;;10.40;7.80;;;12.90;99.90;;;;;;5070327;28;20691;-71
2023/09/15 04:15:59;;;;;;;9.03;6.90;;;12.80;99.90;;;;;;5088573;28;20423;-72
2023/09/15 04:18:25;;;;;;;11.50;7.27;;;12.80;99.90;;;;;;5070991;28;20214;-72
2023/09/15 04:20:50;;;;;;;10.43;6.80;;;12.90;99.90;;;;;;5088437;28;21269;-71
2023/09/15 04:23:16;;;;;;;14.20;8.27;;;12.80;99.90;;;;;;5088317;28;20442;-71
2023/09/15 04:25:43;;;;;;;12.03;7.30;;;12.80;99.90;;;;;;5053555;28;20186;-71
2023/09/15 04:28:08;;;;;;;10.00;8.00;;;12.60;99.90;;;;;;5088632;28;20691;-71
2023/09/15 04:30:34;;;;;;;12.93;8.10;;;12.60;99.90;;;;;;5090948;28;20417;-73
2023/09/15 04:32:59;;;;;;;14.50;8.03;;;12.50;99.90;;;;;;5074503;28;20239;-72
2023/09/15 04:35:27;;;;;;;13.30;8.87;;;12.40;99.90;;;;;;5092619;28;20189;-72
2023/09/15 04:37:52;;;;;;;11.93;9.33;;;12.30;99.90;;;;;;5074360;28;20198;-72
2023/09/15 04:40:18;;;;;;;12.20;9.40;;;12.20;99.90;;;;;;5092516;28;20430;-72
2023/09/15 04:42:44;;;;;;;11.67;8.90;;;12.30;99.90;;;;;;5074206;28;20178;-72
2023/09/15 04:45:11;;;;;;;20.40;9.27;;;12.40;99.90;;;;;;5074526;28;20182;-71
2023/09/15 04:47:37;;;;;;;11.03;7.70;;;12.60;99.90;;;;;;5092359;28;20495;-71
2023/09/15 04:50:03;;;;;;;11.97;8.60;;;12.60;99.90;;;;;;5073939;28;20531;-71
2023/09/15 04:52:29;;;;;;;13.60;8.80;;;12.50;99.90;;;;;;5091502;28;20443;-72
2023/09/15 04:54:56;;;;;;;14.63;9.70;;;12.50;99.90;;;;;;5073329;28;20469;-72
2023/09/15 04:57:21;;;;;;;13.80;8.57;;;12.50;99.90;;;;;;5073877;28;20232;-72
2023/09/15 04:59:47;;;;;;;13.83;8.70;;;12.50;99.90;;;;;;5091227;28;20460;-73
2023/09/15 05:02:13;;;;;;;14.17;9.17;;;12.50;99.90;;;;;;5072948;28;20442;-72
2023/09/15 05:04:40;;;;;;;17.13;10.07;;;12.50;99.90;;;;;;5091131;28;20436;-72
2023/09/15 05:07:06;;;;;;;12.10;8.23;;;12.50;99.90;;;;;;5091431;28;21092;-72
2023/09/15 05:09:32;;;;;;;12.90;9.67;;;12.50;99.90;;;;;;5056592;28;20427;-72
2023/09/15 05:11:57;;;;;;;16.10;9.40;;;12.50;99.90;;;;;;5091211;28;20542;-72
2023/09/15 05:14:23;;;;;;;14.70;10.73;;;12.50;99.90;;;;;;5090978;28;20212;-72
2023/09/15 05:16:49;;;;;;;14.33;9.70;;;12.40;99.90;;;;;;5072835;28;20189;-72
2023/09/15 05:19:14;;;;;;;20.63;11.20;;;12.10;99.90;;;;;;5091025;28;20205;-72
2023/09/15 05:21:41;;;;;;;15.83;10.20;;;12.40;99.90;;;;;;5091140;28;20428;-72
2023/09/15 05:24:07;;;;;;;12.93;8.80;;;12.50;99.90;;;;;;5090787;28;20305;-72
2023/09/15 05:26:32;;;;;;;15.00;9.03;;;12.50;99.90;;;;;;5090714;28;20744;-72
2023/09/15 05:28:58;;;;;;;13.23;9.60;;;12.60;99.90;;;;;;5090575;28;20190;-72
2023/09/15 05:31:25;;;;;;;11.10;8.27;;;12.60;99.90;;;;;;5090962;28;20594;-72
2023/09/15 05:33:55;;;;;;;14.73;10.20;;;12.60;99.90;;;;;;5090385;28;20206;-72
2023/09/15 05:36:21;;;;;;;15.90;8.80;;;12.60;99.90;;;;;;5090233;28;20519;-73
2023/09/15 05:38:47;;;;;;;18.10;10.50;;;12.70;99.90;;;;;;5089822;28;20547;-72
2023/09/15 05:41:14;;;;;;;14.23;9.43;;;12.80;99.90;;;;;;5089864;28;20870;-72
2023/09/15 05:43:40;;;;;;;13.27;9.90;;;12.80;99.90;;;;;;5071637;28;20435;-72
2023/09/15 05:46:06;;;;;;;15.50;9.77;;;12.90;99.90;;;;;;5054838;28;20489;-72
2023/09/15 05:48:31;;;;;;;14.70;10.30;;;12.90;99.90;;;;;;5071504;28;20743;-72
2023/09/15 05:50:57;;;;;;;14.50;9.30;;;13.10;99.90;;;;;;5071188;28;20448;-72
2023/09/15 05:53:22;;;;;;;13.97;9.03;;;13.10;99.90;;;;;;5089611;28;20202;-72
2023/09/15 05:55:48;;;;;;;14.33;9.40;;;13.10;99.90;;;;;;5071616;28;20187;-72
2023/09/15 05:58:14;;;;;;;13.27;9.90;;;13.20;99.90;;;;;;5071231;28;20217;-72
2023/09/15 06:00:42;;;;;;;15.10;9.33;;;13.30;99.90;;;;;;5089675;28;20185;-72
2023/09/15 06:03:08;;;;;;;15.43;9.90;;;13.60;99.90;;;;;;5054788;28;20635;-72
2023/09/15 06:05:34;;;;;;;20.10;8.40;;;14.10;99.90;;;;;;5089204;28;20419;-72
2023/09/15 06:08:00;;;;;;;9.27;7.30;;;14.60;99.90;;;;;;5089659;28;20416;-72
2023/09/15 06:10:26;;;;;;;13.00;7.50;;;15.00;99.90;;;;;;5089443;28;20926;-72
2023/09/15 06:12:52;;;;;;;10.97;7.40;;;15.50;99.90;;;;;;5089447;28;20416;-71
2023/09/15 06:15:18;;;;;;;12.47;8.27;;;15.50;99.90;;;;;;5071369;28;20190;-71
2023/09/15 06:17:44;;;;;;;11.97;8.10;;;15.50;99.90;;;;;;5089223;28;20450;-72
2023/09/15 06:20:09;;;;;;;14.77;8.60;;;15.50;99.90;;;;;;5089306;28;21005;-72
2023/09/15 06:22:35;;;;;;;14.33;9.33;;;15.50;99.90;;;;;;5089268;28;20424;-72
2023/09/15 06:25:02;;;;;;;12.83;7.93;;;15.80;99.90;;;;;;5070876;28;20217;-72
2023/09/15 06:27:29;;;;;;;12.40;9.47;;;15.90;99.90;;;;;;5070909;28;20573;-72
2023/09/15 06:29:55;;;;;;;15.17;9.73;;;15.90;99.90;;;;;;5089194;28;20426;-72
2023/09/15 06:32:21;;;;;;;14.67;10.20;;;15.60;99.90;;;;;;5089418;28;20639;-72
2023/09/15 06:34:46;;;;;;;13.50;9.40;;;15.50;99.90;;;;;;5089434;28;20443;-72
2023/09/15 06:37:12;;;;;;;17.47;10.80;;;15.30;99.90;;;;;;5089378;28;20274;-72
2023/09/15 06:39:38;;;;;;;12.70;10.33;;;15.10;99.90;;;;;;5054494;28;20232;-72
2023/09/15 06:42:08;;;;;;;14.03;9.47;;;15.10;99.90;;;;;;5071420;28;20187;-72
2023/09/15 06:44:35;;;;;;;15.93;10.90;;;15.10;99.90;;;;;;5088654;28;20202;-72
2023/09/15 06:47:01;;;;;;;15.40;10.60;;;15.00;99.90;;;;;;5088739;28;20450;-72
2023/09/15 06:49:26;;;;;;;15.87;11.27;;;15.00;99.90;;;;;;5070300;28;20432;-72
2023/09/15 06:51:53;;;;;;;15.77;11.73;;;15.00;99.90;;;;;;5088564;28;21012;-71
2023/09/15 06:54:19;;;;;;;18.20;12.10;;;15.00;99.90;;;;;;5088456;28;20202;-72
2023/09/15 06:56:44;;;;;;;21.53;12.80;;;15.00;99.90;;;;;;5070118;28;20449;-71
2023/09/15 06:59:10;;;;;;;19.53;11.93;;;14.90;99.90;;;;;;5088535;28;20263;-72
2023/09/15 07:01:35;;;;;;;18.67;11.53;;;14.90;99.90;;;;;;5088577;28;20957;-72
2023/09/15 07:04:01;;;;;;;15.00;11.37;;;14.90;99.90;;;;;;5053043;28;20211;-72
2023/09/15 07:06:27;;;;;;;16.53;11.00;;;15.00;99.90;;;;;;5087967;28;20718;-72
2023/09/15 07:08:53;;;;;;;17.00;11.27;;;15.20;99.90;;;;;;5069369;28;20549;-72
2023/09/15 07:11:18;;;;;;;21.13;12.17;;;15.30;99.90;;;;;;5069552;28;20596;-72
2023/09/15 07:13:44;;;;;;;18.30;10.13;;;15.30;99.90;;;;;;5087960;28;20277;-72
2023/09/15 07:16:09;;;;;;;17.90;11.20;;;15.30;99.90;;;;;;5087732;28;20254;-72
2023/09/15 07:18:36;;;;;;;21.37;11.20;;;15.30;99.90;;;;;;5052847;28;20215;-72
2023/09/15 07:21:02;;;;;;;18.23;12.40;;;15.40;99.90;;;;;;5087738;28;20184;-72
2023/09/15 07:23:27;;;;;;;16.03;11.20;;;15.50;99.90;;;;;;5087594;28;20464;-72
2023/09/15 07:25:53;;;;;;;14.70;10.40;;;15.50;99.90;;;;;;5087848;28;20187;-72
2023/09/15 07:28:18;;;;;;;14.93;11.20;;;15.60;99.90;;;;;;5069166;28;20715;-72
2023/09/15 07:30:44;;;;;;;17.23;11.77;;;15.70;99.90;;;;;;5035987;28;20244;-72
2023/09/15 07:33:09;;;;;;;17.23;11.30;;;15.70;99.90;;;;;;5052591;28;20836;-71
2023/09/15 07:35:36;;;;;;;16.20;11.23;;;15.80;99.90;;;;;;5087977;28;20190;-72
2023/09/15 07:38:02;;;;;;;15.20;10.83;;;16.00;99.90;;;;;;5087473;28;20765;-72
2023/09/15 07:40:28;;;;;;;13.13;10.10;;;16.10;99.90;;;;;;5087628;28;20421;-72
2023/09/15 07:42:54;;;;;;;15.10;9.83;;;16.10;99.90;;;;;;5069032;28;20426;-72
2023/09/15 07:45:20;;;;;;;17.83;11.00;;;16.20;99.90;;;;;;5069140;28;20445;-72
2023/09/15 07:47:46;;;;;;;19.93;11.67;;;16.30;99.90;;;;;;5087620;28;20213;-72
2023/09/15 07:50:13;;;;;;;13.50;9.97;;;16.30;99.90;;;;;;5069098;28;20190;-73
2023/09/15 07:52:39;;;;;;;15.40;10.47;;;16.40;99.90;;;;;;5088098;28;20729;-73
2023/09/15 07:55:05;;;;;;;13.50;10.97;;;16.60;99.90;;;;;;5068954;28;20435;-72
2023/09/15 07:57:32;;;;;;;14.60;9.90;;;16.70;99.90;;;;;;5087199;28;20410;-72
2023/09/15 07:59:59;;;;;;;14.90;9.77;;;16.70;99.90;;;;;;5086907;28;20473;-72
2023/09/15 08:02:26;;;;;;;16.57;10.97;;;16.70;99.90;;;;;;5087255;28;21221;-72
2023/09/15 08:04:53;;;;;;;12.13;9.77;;;16.70;99.90;;;;;;5086275;28;20484;-73
2023/09/15 08:07:18;;;;;;;14.87;10.73;;;16.80;99.90;;;;;;5086843;28;20503;-72
2023/09/15 08:09:44;;;;;;;12.73;9.33;;;17.00;99.90;;;;;;5087136;28;20517;-73
2023/09/15 08:12:10;;;;;;;22.17;10.60;;;17.10;99.90;;;;;;5068830;28;20197;-72
2023/09/15 08:14:35;;;;;;;12.80;9.20;;;17.20;99.90;;;;;;5069078;28;20216;-72
2023/09/15 08:17:02;;;;;;;12.90;9.60;;;17.40;99.90;;;;;;5069299;28;20193;-73
2023/09/15 08:19:28;;;;;;;11.73;9.17;;;17.50;99.90;;;;;;5068912;28;20221;-71
2023/09/15 08:21:53;;;;;;;12.43;10.20;;;17.70;99.90;;;;;;5069323;28;20427;-72
2023/09/15 08:24:20;;;;;;;14.27;9.67;;;17.80;99.90;;;;;;5087727;28;20278;-73
2023/09/15 08:26:46;;;;;;;14.33;9.53;;;17.90;99.90;;;;;;5069395;28;20622;-72
2023/09/15 08:29:12;;;;;;;14.20;8.97;;;18.00;99.90;;;;;;5087561;28;20416;-72
2023/09/15 08:31:39;;;;;;;12.67;8.97;;;18.20;99.90;;;;;;5069088;28;20789;-73
2023/09/15 08:34:05;;;;;;;15.60;9.90;;;18.30;99.90;;;;;;5069078;28;21021;-73
2023/09/15 08:36:31;;;;;;;14.40;9.40;;;18.40;99.90;;;;;;5052329;28;20511;-73
2023/09/15 08:38:56;;;;;;;16.93;10.03;;;18.60;99.90;;;;;;5087406;28;20224;-73
2023/09/15 08:41:28;;;;;;;15.90;10.10;;;18.70;99.90;;;;;;5087219;28;20426;-72
2023/09/15 08:43:54;;;;;;;13.37;9.40;;;18.90;99.90;;;;;;5087132;28;20825;-72
2023/09/15 08:46:21;;;;;;;13.37;9.33;;;19.00;99.90;;;;;;5068710;28;20532;-73
2023/09/15 08:48:50;;;;;;;16.43;10.33;;;19.20;99.90;;;;;;5052025;28;20960;-72
2023/09/15 08:51:17;;;;;;;15.90;9.33;;;19.20;99.90;;;;;;5086920;28;20794;-72
2023/09/15 08:53:43;;;;;;;14.63;10.43;;;19.40;99.90;;;;;;5069259;28;20440;-73
2023/09/15 08:56:09;;;;;;;13.30;9.03;;;19.50;99.90;;;;;;5086880;28;20452;-73
2023/09/15 08:58:36;;;;;;;11.43;8.50;;;19.70;99.90;;;;;;5068937;28;20495;-72
2023/09/15 09:01:07;;;;;;;10.77;9.50;;;19.80;99.90;;;;;;5087006;28;20451;-72
2023/09/15 09:03:36;;;;;;;11.63;9.90;;;20.00;99.90;;;;;;5068595;28;20502;-73
2023/09/15 09:06:06;;;;;;;10.87;9.07;;;20.10;99.90;;;;;;5088175;28;20507;-73
2023/09/15 09:08:32;;;;;;;10.43;8.30;;;20.30;99.90;;;;;;5068868;28;20442;-72
2023/09/15 09:10:58;;;;;;;9.83;8.30;;;20.50;99.90;;;;;;5087666;28;20418;-73
2023/09/15 09:13:24;;;;;;;11.13;7.43;;;20.70;99.90;;;;;;5087357;28;20447;-72
2023/09/15 09:15:51;;;;;;;13.30;8.03;;;21.00;99.90;;;;;;5070367;28;20965;-71
2023/09/15 09:18:18;;;;;;;7.80;7.00;;;21.50;99.90;;;;;;5091139;28;20467;-73
2023/09/15 09:20:49;;;;;;;8.83;6.93;;;21.90;99.90;;;;;;5091246;28;20438;-73
2023/09/15 09:23:16;;;;;;;9.40;7.20;;;22.40;99.90;;;;;;5091303;28;20795;-73
2023/09/15 09:25:42;;;;;;;7.83;6.70;;;22.70;99.90;;;;;;5072901;28;20428;-74
2023/09/15 09:28:07;;;;;;;11.60;6.53;;;23.10;99.90;;;;;;5091560;28;20423;-74
2023/09/15 09:30:33;;;;;;;6.50;5.83;;;23.40;99.90;;;;;;5072621;28;20190;-73
2023/09/15 09:32:59;;;;;;;8.70;6.93;;;23.60;99.90;;;;;;5091065;28;20187;-73
2023/09/15 09:35:25;;;;;;;16.50;6.67;;;24.10;99.90;;;;;;5090645;28;20785;-73
2023/09/15 09:37:52;;;;;;;8.70;6.57;;;24.50;99.90;;;;;;5090705;28;20429;-73
2023/09/15 09:40:19;;;;;;;9.87;6.57;;;24.80;99.90;;;;;;5072402;28;20921;-73
2023/09/15 09:42:45;;;;;;;7.93;6.47;;;24.90;99.90;;;;;;5090586;28;20905;-73
2023/09/15 09:45:11;;;;;;;6.60;5.40;;;25.20;99.90;;;;;;5090469;28;20492;-73
2023/09/15 09:47:37;;;;;;;7.90;6.37;;;25.70;99.90;;;;;;5090464;28;20420;-73
2023/09/15 09:50:09;;;;;;;7.83;6.40;;;25.80;99.90;;;;;;5090303;28;20745;-73
2023/09/15 09:52:35;;;;;;;8.43;6.00;;;26.00;99.90;;;;;;5090230;28;20663;-73
2023/09/15 09:55:04;;;;;;;11.60;6.53;;;26.20;99.90;;;;;;5090176;28;20481;-73
2023/09/15 09:57:30;;;;;;;8.20;6.13;;;26.40;99.90;;;;;;5071667;28;20805;-73
2023/09/15 09:59:56;;;;;;;10.83;7.07;;;26.70;99.90;;;;;;5089936;28;20474;-73
2023/09/15 10:02:22;;;;;;;8.70;6.90;;;26.70;99.10;;;;;;5089545;28;20917;-73
2023/09/15 10:04:48;;;;;;;14.60;6.87;;;26.50;98.90;;;;;;5071252;28;20435;-73
2023/09/15 10:07:13;;;;;;;9.57;7.13;;;26.60;99.90;;;;;;5089152;28;20226;-73
2023/09/15 10:09:39;;;;;;;15.53;6.63;;;26.80;99.20;;;;;;5089199;28;20174;-73
2023/09/15 10:12:05;;;;;;;7.20;5.60;;;27.20;98.90;;;;;;5070745;28;20425;-73
2023/09/15 10:14:31;;;;;;;9.57;6.47;;;27.40;98.70;;;;;;5071144;28;20206;-73
2023/09/15 10:16:59;;;;;;;8.90;6.53;;;27.50;96.20;;;;;;5089520;28;20500;-73
2023/09/15 10:19:25;;;;;;;6.40;5.80;;;28.00;95.80;;;;;;5054612;28;20948;-73
2023/09/15 10:21:51;;;;;;;10.70;7.03;;;28.00;95.60;;;;;;5089536;28;20512;-73
2023/09/15 10:24:17;;;;;;;8.57;5.50;;;28.10;94.60;;;;;;5089391;28;20519;-73
2023/09/15 10:26:43;;;;;;;8.70;5.70;;;28.40;93.80;;;;;;5089362;28;20419;-73
2023/09/15 10:29:13;;;;;;;9.53;6.03;;;28.30;92.60;;;;;;5070893;28;20252;-73
2023/09/15 10:31:44;;;;;;;9.33;6.07;;;28.30;94.30;;;;;;5089328;28;20431;-73
2023/09/15 10:34:09;;;;;;;9.23;7.10;;;28.50;92.30;;;;;;5054290;28;20920;-73
2023/09/15 10:36:35;;;;;;;7.50;6.70;;;28.40;91.90;;;;;;5088913;28;20440;-74
2023/09/15 10:39:14;;;;;;;7.10;5.47;;;28.00;93.50;;;;;;5088853;28;20297;-73
2023/09/15 10:41:40;;;;;;;7.40;6.43;;;28.60;92.50;;;;;;5088680;28;20608;-73
2023/09/15 10:44:07;;;;;;;7.10;5.77;;;28.50;91.40;;;;;;5088356;28;20468;-73
2023/09/15 10:46:40;;;;;;;7.33;5.97;;;28.90;91.20;;;;;;5088714;28;21251;-73
2023/09/15 10:49:13;;;;;;;7.30;5.53;;;28.90;91.50;;;;;;5088321;28;20417;-73
2023/09/15 10:51:57;;;;;;;10.73;6.33;;;29.10;90.40;;;;;;5088164;28;20497;-73
2023/09/15 10:54:30;;;;;;;7.27;5.80;;;28.90;89.20;;;;;;5088722;28;20445;-73
2023/09/15 10:56:57;;;;;;;11.30;6.37;;;29.00;91.20;;;;;;5088306;28;20558;-73
2023/09/15 10:59:24;;;;;;;6.60;5.57;;;29.20;90.40;;;;;;5088327;28;20468;-73
2023/09/15 11:01:50;;;;;;;6.93;6.23;;;29.30;90.50;;;;;;5069800;28;20498;-73
2023/09/15 11:04:22;;;;;;;8.70;6.87;;;29.30;85.50;;;;;;5069823;28;20468;-72
2023/09/15 11:06:50;;;;;;;5.20;4.70;;;29.20;85.80;;;;;;5088072;28;20793;-74
2023/09/15 11:09:17;;;;;;;17.77;5.53;;;29.60;85.40;;;;;;5088110;28;20824;-74
2023/09/15 11:11:44;;;;;;;6.97;4.60;;;29.50;85.00;;;;;;5088103;28;20410;-73
2023/09/15 11:14:16;;;;;;;5.43;4.90;;;29.40;84.80;;;;;;5087879;28;21072;-73
2023/09/15 11:16:49;;;;;;;5.90;5.30;;;29.60;84.70;;;;;;5088124;28;20415;-73
2023/09/15 11:19:18;;;;;;;5.80;5.20;;;29.60;85.90;;;;;;5053461;28;20996;-74
2023/09/15 11:21:45;;;;;;;8.40;5.00;;;29.10;85.50;;;;;;5088217;28;20795;-74
2023/09/15 11:24:11;;;;;;;7.00;4.57;;;29.10;88.90;;;;;;5053249;28;20467;-74
2023/09/15 11:27:00;;;;;;;6.03;4.33;;;29.40;87.80;;;;;;5088509;28;20416;-73
2023/09/15 11:29:27;;;;;;;8.67;5.60;;;29.40;87.00;;;;;;5069727;28;20868;-74
2023/09/15 11:31:54;;;;;;;6.50;4.60;;;29.30;89.10;;;;;;5088451;28;20466;-73
2023/09/15 11:34:21;;;;;;;4.70;4.23;;;29.20;86.10;;;;;;5087597;28;20464;-74
2023/09/15 11:36:47;;;;;;;5.00;4.50;;;29.20;86.10;;;;;;5069289;28;20416;-74
2023/09/15 11:39:15;;;;;;;4.73;3.80;;;29.40;84.20;;;;;;5086430;28;21004;-74
2023/09/15 11:41:53;;;;;;;7.43;4.60;;;29.50;84.00;;;;;;5068878;28;20420;-74
2023/09/15 11:44:29;;;;;;;6.60;4.37;;;29.00;85.10;;;;;;5087406;28;20432;-74
2023/09/15 11:46:57;;;;;;;6.90;4.40;;;29.30;85.00;;;;;;5087366;28;20976;-74
2023/09/15 11:49:25;;;;;;;4.27;3.87;;;29.40;88.20;;;;;;5087341;28;20445;-74
2023/09/15 11:51:54;;;;;;;4.27;3.87;;;29.50;83.70;;;;;;5087792;28;20447;-74
2023/09/15 11:54:19;;;;;;;4.13;3.83;;;29.60;82.50;;;;;;5087494;28;20446;-74
2023/09/15 11:56:46;;;;;;;4.47;4.17;;;29.40;83.70;;;;;;5069100;28;20416;-74
2023/09/15 11:59:15;;;;;;;6.93;4.30;;;29.20;84.90;;;;;;5068773;28;20241;-74
2023/09/15 12:01:40;;;;;;;4.10;3.80;;;28.90;85.50;;;;;;5087219;28;20964;-74
2023/09/15 12:04:07;;;;;;;4.70;4.20;;;28.90;87.80;;;;;;5087022;28;20441;-74
2023/09/15 12:06:33;;;;;;;4.37;4.07;;;28.80;85.30;;;;;;5069000;28;20174;-74
2023/09/15 12:08:59;;;;;;;5.60;5.10;;;28.80;88.60;;;;;;5068960;28;20459;-74
2023/09/15 12:11:24;;;;;;;4.33;4.03;;;28.90;89.30;;;;;;5068827;28;20348;-74
2023/09/15 12:13:54;;;;;;;6.33;4.87;;;28.60;87.70;;;;;;5068636;28;20279;-74
2023/09/15 12:16:26;;;;;;;5.30;4.50;;;28.10;88.40;;;;;;5068783;28;20497;-74
2023/09/15 12:18:51;;;;;;;5.50;5.00;;;27.90;87.80;;;;;;5086956;28;20982;-74
2023/09/15 12:21:24;;;;;;;7.50;5.83;;;28.10;88.70;;;;;;5087507;28;20421;-74
2023/09/15 12:23:51;;;;;;;5.57;5.07;;;27.80;90.20;;;;;;5069615;28;20201;-74
2023/09/15 12:26:17;;;;;;;5.10;4.60;;;28.00;90.40;;;;;;5068662;28;20427;-74
2023/09/15 12:28:43;;;;;;;6.70;6.10;;;28.10;90.50;;;;;;5068315;28;20511;-74
2023/09/15 12:31:16;;;;;;;6.60;5.50;;;28.30;90.10;;;;;;5086778;28;20985;-75
2023/09/15 12:33:44;;;;;;;7.67;5.97;;;28.10;89.90;;;;;;5086711;28;20202;-75
2023/09/15 12:36:12;;;;;;;6.87;6.17;;;27.70;90.50;;;;;;5051965;28;20417;-74
2023/09/15 12:38:39;;;;;;;5.90;5.13;;;27.80;91.20;;;;;;5067859;28;20474;-75
2023/09/15 12:41:04;;;;;;;7.77;5.43;;;27.90;90.90;;;;;;5086528;28;20884;-75